sensor_id;sensor_type;location;lat;lon;timestamp;pressure;altitude;pressure_sealevel;temperature;humidity
75699;BME280;64313;51.018;13.742;2023-07-08T00:00:17;100115.44;;;20.58;51.98
75699;BME280;64313;51.018;13.742;2023-07-08T00:02:46;100117.44;;;20.45;52.69
75699;BME280;64313;51.018;13.742;2023-07-08T00:05:13;100115.69;;;20.34;53.05
75699;BME280;64313;51.018;13.742;2023-07-08T00:07:39;100116.22;;;20.31;52.89
75699;BME280;64313;51.018;13.742;2023-07-08T00:12:38;100116.06;;;20.21;53.20
75699;BME280;64313;51.018;13.742;2023-07-08T00:15:04;100121.19;;;20.17;53.19
75699;BME280;64313;51.018;13.742;2023-07-08T00:17:30;100131.75;;;20.14;52.87
75699;BME280;64313;51.018;13.742;2023-07-08T00:19:55;100130.28;;;20.06;53.12
75699;BME280;64313;51.018;13.742;2023-07-08T00:22:20;100133.25;;;20.04;52.22
75699;BME280;64313;51.018;13.742;2023-07-08T00:24:50;100134.63;;;20.07;51.12
75699;BME280;64313;51.018;13.742;2023-07-08T00:27:16;100133.75;;;20.01;51.86
75699;BME280;64313;51.018;13.742;2023-07-08T00:29:41;100134.75;;;19.95;50.18
75699;BME280;64313;51.018;13.742;2023-07-08T00:32:11;100137.47;;;19.95;50.00
75699;BME280;64313;51.018;13.742;2023-07-08T00:34:37;100151.53;;;19.92;49.65
75699;BME280;64313;51.018;13.742;2023-07-08T00:37:03;100137.16;;;19.92;49.54
75699;BME280;64313;51.018;13.742;2023-07-08T00:39:32;100143.09;;;19.88;49.60
75699;BME280;64313;51.018;13.742;2023-07-08T00:42:00;100141.94;;;19.84;49.48
75699;BME280;64313;51.018;13.742;2023-07-08T00:44:25;100140.03;;;19.85;49.99
75699;BME280;64313;51.018;13.742;2023-07-08T00:47:02;100134.88;;;19.83;50.17
75699;BME280;64313;51.018;13.742;2023-07-08T00:49:48;100140.53;;;19.82;49.47
75699;BME280;64313;51.018;13.742;2023-07-08T00:52:21;100144.88;;;19.83;49.99
75699;BME280;64313;51.018;13.742;2023-07-08T00:55:05;100138.91;;;19.81;49.43
75699;BME280;64313;51.018;13.742;2023-07-08T00:57:35;100132.97;;;19.84;49.21
75699;BME280;64313;51.018;13.742;2023-07-08T01:00:05;100134.28;;;19.81;49.25
75699;BME280;64313;51.018;13.742;2023-07-08T01:02:39;100134.53;;;19.80;49.10
75699;BME280;64313;51.018;13.742;2023-07-08T01:05:10;100127.91;;;19.71;49.05
75699;BME280;64313;51.018;13.742;2023-07-08T01:07:38;100129.69;;;19.65;48.94
75699;BME280;64313;51.018;13.742;2023-07-08T01:10:08;100125.56;;;19.62;49.17
75699;BME280;64313;51.018;13.742;2023-07-08T01:12:42;100125.84;;;19.61;49.10
75699;BME280;64313;51.018;13.742;2023-07-08T01:15:08;100130.09;;;19.57;49.80
75699;BME280;64313;51.018;13.742;2023-07-08T01:17:35;100128.06;;;19.47;50.50
75699;BME280;64313;51.018;13.742;2023-07-08T01:20:03;100131.50;;;19.42;50.92
75699;BME280;64313;51.018;13.742;2023-07-08T01:22:36;100128.47;;;19.39;50.49
75699;BME280;64313;51.018;13.742;2023-07-08T01:25:02;100134.06;;;19.32;50.22
75699;BME280;64313;51.018;13.742;2023-07-08T01:27:32;100138.09;;;19.30;50.04
75699;BME280;64313;51.018;13.742;2023-07-08T01:30:01;100128.56;;;19.27;50.30
75699;BME280;64313;51.018;13.742;2023-07-08T01:32:26;100126.09;;;19.26;49.85
75699;BME280;64313;51.018;13.742;2023-07-08T01:34:55;100120.94;;;19.24;50.13
75699;BME280;64313;51.018;13.742;2023-07-08T01:37:35;100117.13;;;19.25;49.58
75699;BME280;64313;51.018;13.742;2023-07-08T01:42:47;100110.81;;;19.19;49.71
75699;BME280;64313;51.018;13.742;2023-07-08T01:45:14;100104.00;;;19.17;50.16
75699;BME280;64313;51.018;13.742;2023-07-08T01:47:42;100114.53;;;19.13;50.06
75699;BME280;64313;51.018;13.742;2023-07-08T01:50:10;100109.03;;;19.08;50.43
75699;BME280;64313;51.018;13.742;2023-07-08T01:52:36;100110.34;;;19.06;50.40
75699;BME280;64313;51.018;13.742;2023-07-08T01:55:03;100111.66;;;19.03;50.02
75699;BME280;64313;51.018;13.742;2023-07-08T01:57:28;100110.84;;;19.02;50.21
75699;BME280;64313;51.018;13.742;2023-07-08T01:59:54;100107.53;;;19.00;50.07
75699;BME280;64313;51.018;13.742;2023-07-08T02:02:19;100106.72;;;19.00;50.20
75699;BME280;64313;51.018;13.742;2023-07-08T02:04:45;100105.66;;;19.01;50.15
75699;BME280;64313;51.018;13.742;2023-07-08T02:07:12;100105.06;;;18.99;49.87
75699;BME280;64313;51.018;13.742;2023-07-08T02:09:38;100101.78;;;18.97;50.63
75699;BME280;64313;51.018;13.742;2023-07-08T02:12:03;100102.03;;;18.95;50.05
75699;BME280;64313;51.018;13.742;2023-07-08T02:14:28;100104.41;;;18.92;50.37
75699;BME280;64313;51.018;13.742;2023-07-08T02:16:54;100108.69;;;18.88;50.45
75699;BME280;64313;51.018;13.742;2023-07-08T02:19:19;100102.69;;;18.86;50.49
75699;BME280;64313;51.018;13.742;2023-07-08T02:21:47;100104.31;;;18.87;50.33
75699;BME280;64313;51.018;13.742;2023-07-08T02:24:12;100102.69;;;18.86;50.36
75699;BME280;64313;51.018;13.742;2023-07-08T02:26:37;100100.47;;;18.83;50.53
75699;BME280;64313;51.018;13.742;2023-07-08T02:29:03;100095.50;;;18.79;50.50
75699;BME280;64313;51.018;13.742;2023-07-08T02:31:29;100094.69;;;18.79;51.03
75699;BME280;64313;51.018;13.742;2023-07-08T02:33:55;100091.66;;;18.75;50.68
75699;BME280;64313;51.018;13.742;2023-07-08T02:36:20;100082.69;;;18.75;50.91
75699;BME280;64313;51.018;13.742;2023-07-08T02:38:46;100091.53;;;18.70;50.66
75699;BME280;64313;51.018;13.742;2023-07-08T02:41:11;100097.19;;;18.69;51.11
75699;BME280;64313;51.018;13.742;2023-07-08T02:43:37;100094.97;;;18.66;51.20
75699;BME280;64313;51.018;13.742;2023-07-08T02:46:04;100090.88;;;18.63;51.74
75699;BME280;64313;51.018;13.742;2023-07-08T02:48:29;100098.19;;;18.63;50.99
75699;BME280;64313;51.018;13.742;2023-07-08T02:51:02;100093.00;;;18.61;50.96
75699;BME280;64313;51.018;13.742;2023-07-08T02:53:28;100094.78;;;18.55;51.93
75699;BME280;64313;51.018;13.742;2023-07-08T02:55:53;100092.00;;;18.50;52.13
75699;BME280;64313;51.018;13.742;2023-07-08T02:58:19;100088.94;;;18.47;52.42
75699;BME280;64313;51.018;13.742;2023-07-08T03:00:44;100089.69;;;18.42;52.75
75699;BME280;64313;51.018;13.742;2023-07-08T03:03:09;100091.31;;;18.43;52.37
75699;BME280;64313;51.018;13.742;2023-07-08T03:05:35;100093.44;;;18.41;52.78
75699;BME280;64313;51.018;13.742;2023-07-08T03:08:01;100092.28;;;18.37;52.95
75699;BME280;64313;51.018;13.742;2023-07-08T03:10:26;100086.88;;;18.37;53.00
75699;BME280;64313;51.018;13.742;2023-07-08T03:12:52;100085.47;;;18.34;52.92
75699;BME280;64313;51.018;13.742;2023-07-08T03:15:17;100089.00;;;18.35;52.79
75699;BME280;64313;51.018;13.742;2023-07-08T03:17:43;100090.88;;;18.34;53.16
75699;BME280;64313;51.018;13.742;2023-07-08T03:20:09;100083.00;;;18.33;53.00
75699;BME280;64313;51.018;13.742;2023-07-08T03:22:36;100084.88;;;18.32;53.23
75699;BME280;64313;51.018;13.742;2023-07-08T03:25:01;100084.03;;;18.32;53.81
75699;BME280;64313;51.018;13.742;2023-07-08T03:27:28;100092.41;;;18.30;53.46
75699;BME280;64313;51.018;13.742;2023-07-08T03:29:54;100087.81;;;18.31;53.22
75699;BME280;64313;51.018;13.742;2023-07-08T03:32:20;100095.13;;;18.30;53.81
75699;BME280;64313;51.018;13.742;2023-07-08T03:34:45;100101.59;;;18.29;53.91
75699;BME280;64313;51.018;13.742;2023-07-08T03:37:11;100092.91;;;18.27;54.64
75699;BME280;64313;51.018;13.742;2023-07-08T03:39:36;100104.06;;;18.31;53.74
75699;BME280;64313;51.018;13.742;2023-07-08T03:42:02;100106.53;;;18.32;53.65
75699;BME280;64313;51.018;13.742;2023-07-08T03:44:28;100103.84;;;18.32;54.01
75699;BME280;64313;51.018;13.742;2023-07-08T03:46:54;100092.75;;;18.34;54.05
75699;BME280;64313;51.018;13.742;2023-07-08T03:49:21;100093.00;;;18.32;53.69
75699;BME280;64313;51.018;13.742;2023-07-08T03:51:51;100097.84;;;18.30;54.04
75699;BME280;64313;51.018;13.742;2023-07-08T03:54:18;100097.84;;;18.30;54.49
75699;BME280;64313;51.018;13.742;2023-07-08T03:56:45;100096.16;;;18.29;54.72
75699;BME280;64313;51.018;13.742;2023-07-08T03:59:11;100100.53;;;18.30;54.42
75699;BME280;64313;51.018;13.742;2023-07-08T04:01:37;100101.34;;;18.31;54.59
75699;BME280;64313;51.018;13.742;2023-07-08T04:04:12;100100.28;;;18.32;54.14
75699;BME280;64313;51.018;13.742;2023-07-08T04:06:37;100097.34;;;18.33;54.34
75699;BME280;64313;51.018;13.742;2023-07-08T04:09:03;100100.06;;;18.33;54.12
75699;BME280;64313;51.018;13.742;2023-07-08T04:11:28;100099.81;;;18.35;54.13
75699;BME280;64313;51.018;13.742;2023-07-08T04:13:54;100098.16;;;18.34;54.89
75699;BME280;64313;51.018;13.742;2023-07-08T04:16:29;100103.34;;;18.35;54.27
75699;BME280;64313;51.018;13.742;2023-07-08T04:18:55;100099.56;;;18.36;55.35
75699;BME280;64313;51.018;13.742;2023-07-08T04:21:22;100112.06;;;18.37;55.25
75699;BME280;64313;51.018;13.742;2023-07-08T04:23:48;100104.75;;;18.38;55.10
75699;BME280;64313;51.018;13.742;2023-07-08T04:26:14;100108.03;;;18.40;55.02
75699;BME280;64313;51.018;13.742;2023-07-08T04:28:40;100095.91;;;18.43;54.76
75699;BME280;64313;51.018;13.742;2023-07-08T04:31:06;100102.72;;;18.45;54.92
75699;BME280;64313;51.018;13.742;2023-07-08T04:33:31;100103.53;;;18.46;55.67
75699;BME280;64313;51.018;13.742;2023-07-08T04:35:56;100094.34;;;18.47;54.92
75699;BME280;64313;51.018;13.742;2023-07-08T04:38:23;100093.88;;;18.50;55.32
75699;BME280;64313;51.018;13.742;2023-07-08T04:40:50;100096.09;;;18.53;54.90
75699;BME280;64313;51.018;13.742;2023-07-08T04:43:20;100104.81;;;18.55;55.28
75699;BME280;64313;51.018;13.742;2023-07-08T04:45:49;100097.81;;;18.59;55.07
75699;BME280;64313;51.018;13.742;2023-07-08T04:48:16;100100.88;;;18.63;55.19
75699;BME280;64313;51.018;13.742;2023-07-08T04:50:48;100101.44;;;18.65;54.81
75699;BME280;64313;51.018;13.742;2023-07-08T04:53:13;100106.41;;;18.68;54.63
75699;BME280;64313;51.018;13.742;2023-07-08T04:55:42;100108.38;;;18.72;55.32
75699;BME280;64313;51.018;13.742;2023-07-08T04:58:09;100104.34;;;18.75;54.68
75699;BME280;64313;51.018;13.742;2023-07-08T05:00:34;100113.41;;;18.80;54.73
75699;BME280;64313;51.018;13.742;2023-07-08T05:03:00;100111.38;;;18.88;55.36
75699;BME280;64313;51.018;13.742;2023-07-08T05:05:26;100118.53;;;18.94;55.17
75699;BME280;64313;51.018;13.742;2023-07-08T05:10:33;100113.38;;;19.09;54.08
75699;BME280;64313;51.018;13.742;2023-07-08T05:12:59;100121.91;;;19.18;54.08
75699;BME280;64313;51.018;13.742;2023-07-08T05:15:25;100115.28;;;19.26;54.06
75699;BME280;64313;51.018;13.742;2023-07-08T05:17:50;100115.44;;;19.36;53.72
75699;BME280;64313;51.018;13.742;2023-07-08T05:20:16;100116.63;;;19.45;54.34
75699;BME280;64313;51.018;13.742;2023-07-08T05:22:44;100115.38;;;19.53;54.17
75699;BME280;64313;51.018;13.742;2023-07-08T05:25:11;100114.16;;;19.60;54.27
75699;BME280;64313;51.018;13.742;2023-07-08T05:27:36;100113.78;;;19.69;54.44
75699;BME280;64313;51.018;13.742;2023-07-08T05:30:03;100116.06;;;19.77;53.78
75699;BME280;64313;51.018;13.742;2023-07-08T05:32:28;100112.09;;;19.84;53.27
75699;BME280;64313;51.018;13.742;2023-07-08T05:34:54;100122.25;;;19.94;53.60
75699;BME280;64313;51.018;13.742;2023-07-08T05:37:19;100118.06;;;20.03;53.85
75699;BME280;64313;51.018;13.742;2023-07-08T05:39:49;100123.84;;;20.12;52.96
75699;BME280;64313;51.018;13.742;2023-07-08T05:42:14;100122.34;;;20.21;53.15
75699;BME280;64313;51.018;13.742;2023-07-08T05:44:39;100117.28;;;20.30;52.56
75699;BME280;64313;51.018;13.742;2023-07-08T05:47:04;100118.72;;;20.38;53.05
75699;BME280;64313;51.018;13.742;2023-07-08T05:49:30;100121.53;;;20.48;52.28
75699;BME280;64313;51.018;13.742;2023-07-08T05:51:55;100126.81;;;20.55;52.28
75699;BME280;64313;51.018;13.742;2023-07-08T05:54:20;100129.06;;;20.63;52.01
75699;BME280;64313;51.018;13.742;2023-07-08T05:56:46;100124.25;;;20.70;52.05
75699;BME280;64313;51.018;13.742;2023-07-08T05:59:11;100123.78;;;20.78;51.44
75699;BME280;64313;51.018;13.742;2023-07-08T06:01:37;100121.69;;;20.85;51.52
75699;BME280;64313;51.018;13.742;2023-07-08T06:04:06;100130.19;;;20.94;51.01
75699;BME280;64313;51.018;13.742;2023-07-08T06:06:31;100128.66;;;21.03;51.12
75699;BME280;64313;51.018;13.742;2023-07-08T06:08:56;100129.00;;;21.12;50.97
75699;BME280;64313;51.018;13.742;2023-07-08T06:11:22;100124.16;;;21.19;50.52
75699;BME280;64313;51.018;13.742;2023-07-08T06:13:47;100131.59;;;21.29;50.84
75699;BME280;64313;51.018;13.742;2023-07-08T06:16:13;100129.81;;;21.39;50.96
75699;BME280;64313;51.018;13.742;2023-07-08T06:18:39;100126.31;;;21.49;50.77
75699;BME280;64313;51.018;13.742;2023-07-08T06:21:05;100125.84;;;21.57;50.49
75699;BME280;64313;51.018;13.742;2023-07-08T06:23:30;100125.09;;;21.67;51.04
75699;BME280;64313;51.018;13.742;2023-07-08T06:25:56;100125.41;;;21.76;50.71
75699;BME280;64313;51.018;13.742;2023-07-08T06:28:22;100123.00;;;21.85;50.03
75699;BME280;64313;51.018;13.742;2023-07-08T06:30:47;100127.13;;;21.92;49.72
75699;BME280;64313;51.018;13.742;2023-07-08T06:33:13;100126.66;;;22.00;50.15
75699;BME280;64313;51.018;13.742;2023-07-08T06:35:39;100122.31;;;22.10;49.92
75699;BME280;64313;51.018;13.742;2023-07-08T06:41:52;100113.75;;;22.33;49.49
75699;BME280;64313;51.018;13.742;2023-07-08T06:44:23;100110.75;;;22.45;49.31
75699;BME280;64313;51.018;13.742;2023-07-08T06:46:48;100118.94;;;22.50;48.98
75699;BME280;64313;51.018;13.742;2023-07-08T06:49:13;100113.50;;;22.55;48.26
75699;BME280;64313;51.018;13.742;2023-07-08T06:51:39;100116.78;;;22.62;47.85
75699;BME280;64313;51.018;13.742;2023-07-08T06:54:05;100116.81;;;22.67;48.44
75699;BME280;64313;51.018;13.742;2023-07-08T06:56:37;100115.47;;;22.75;47.92
75699;BME280;64313;51.018;13.742;2023-07-08T06:59:03;100113.03;;;22.84;48.61
75699;BME280;64313;51.018;13.742;2023-07-08T07:01:28;100111.41;;;22.93;48.54
75699;BME280;64313;51.018;13.742;2023-07-08T07:03:54;100107.63;;;22.99;48.09
75699;BME280;64313;51.018;13.742;2023-07-08T07:06:19;100111.16;;;23.05;47.60
75699;BME280;64313;51.018;13.742;2023-07-08T07:08:44;100110.91;;;23.11;47.56
75699;BME280;64313;51.018;13.742;2023-07-08T07:11:10;100096.44;;;23.21;47.95
75699;BME280;64313;51.018;13.742;2023-07-08T07:13:35;100102.44;;;23.28;47.85
75699;BME280;64313;51.018;13.742;2023-07-08T07:16:00;100106.78;;;23.40;47.48
75699;BME280;64313;51.018;13.742;2023-07-08T07:18:26;100103.22;;;23.49;47.06
75699;BME280;64313;51.018;13.742;2023-07-08T07:20:54;100095.03;;;23.54;46.87
75699;BME280;64313;51.018;13.742;2023-07-08T07:23:20;100103.22;;;23.60;46.57
75699;BME280;64313;51.018;13.742;2023-07-08T07:25:46;100096.63;;;23.66;45.75
75699;BME280;64313;51.018;13.742;2023-07-08T07:28:15;100101.56;;;23.74;46.00
75699;BME280;64313;51.018;13.742;2023-07-08T07:30:44;100100.44;;;23.85;46.24
75699;BME280;64313;51.018;13.742;2023-07-08T07:33:10;100098.78;;;23.94;45.77
75699;BME280;64313;51.018;13.742;2023-07-08T07:35:40;100094.38;;;23.98;46.26
75699;BME280;64313;51.018;13.742;2023-07-08T07:38:06;100098.69;;;24.15;46.48
75699;BME280;64313;51.018;13.742;2023-07-08T07:40:31;100097.03;;;24.19;45.06
75699;BME280;64313;51.018;13.742;2023-07-08T07:42:57;100088.78;;;24.29;46.08
75699;BME280;64313;51.018;13.742;2023-07-08T07:45:22;100086.03;;;24.34;45.54
75699;BME280;64313;51.018;13.742;2023-07-08T07:47:48;100082.72;;;24.43;44.81
75699;BME280;64313;51.018;13.742;2023-07-08T07:50:13;100087.56;;;24.56;45.09
75699;BME280;64313;51.018;13.742;2023-07-08T07:52:40;100074.94;;;24.65;45.26
75699;BME280;64313;51.018;13.742;2023-07-08T07:55:06;100081.47;;;24.69;44.82
75699;BME280;64313;51.018;13.742;2023-07-08T07:57:32;100081.38;;;24.79;45.60
75699;BME280;64313;51.018;13.742;2023-07-08T07:59:57;100080.78;;;24.88;45.18
75699;BME280;64313;51.018;13.742;2023-07-08T08:02:23;100078.78;;;24.98;44.75
75699;BME280;64313;51.018;13.742;2023-07-08T08:04:48;100080.66;;;25.03;44.18
75699;BME280;64313;51.018;13.742;2023-07-08T08:07:13;100086.69;;;25.05;44.43
75699;BME280;64313;51.018;13.742;2023-07-08T08:09:38;100087.41;;;25.16;43.96
75699;BME280;64313;51.018;13.742;2023-07-08T08:12:07;100087.09;;;25.22;44.48
75699;BME280;64313;51.018;13.742;2023-07-08T08:14:33;100085.88;;;25.34;44.34
75699;BME280;64313;51.018;13.742;2023-07-08T08:16:58;100081.13;;;25.44;44.40
75699;BME280;64313;51.018;13.742;2023-07-08T08:19:24;100075.84;;;25.53;44.44
75699;BME280;64313;51.018;13.742;2023-07-08T08:21:49;100077.13;;;25.61;44.38
75699;BME280;64313;51.018;13.742;2023-07-08T08:24:14;100086.09;;;25.66;44.36
75699;BME280;64313;51.018;13.742;2023-07-08T08:26:40;100073.69;;;25.74;43.83
75699;BME280;64313;51.018;13.742;2023-07-08T08:29:05;100075.56;;;25.79;43.02
75699;BME280;64313;51.018;13.742;2023-07-08T08:31:30;100070.81;;;25.89;43.23
75699;BME280;64313;51.018;13.742;2023-07-08T08:33:58;100073.19;;;25.96;43.79
75699;BME280;64313;51.018;13.742;2023-07-08T08:36:24;100073.59;;;26.08;43.88
75699;BME280;64313;51.018;13.742;2023-07-08T08:38:49;100074.03;;;26.16;42.74
75699;BME280;64313;51.018;13.742;2023-07-08T08:41:38;100072.25;;;26.25;42.64
75699;BME280;64313;51.018;13.742;2023-07-08T08:44:06;100068.78;;;26.38;41.95
75699;BME280;64313;51.018;13.742;2023-07-08T08:46:40;100069.53;;;26.44;42.19
75699;BME280;64313;51.018;13.742;2023-07-08T08:51:50;100063.13;;;26.53;40.49
75699;BME280;64313;51.018;13.742;2023-07-08T08:54:16;100076.09;;;26.67;41.31
75699;BME280;64313;51.018;13.742;2023-07-08T09:00:54;100065.59;;;26.88;41.31
75699;BME280;64313;51.018;13.742;2023-07-08T09:06:15;100068.41;;;27.02;40.16
75699;BME280;64313;51.018;13.742;2023-07-08T09:08:42;100065.47;;;27.12;40.64
75699;BME280;64313;51.018;13.742;2023-07-08T09:14:55;100065.66;;;27.34;37.89
75699;BME280;64313;51.018;13.742;2023-07-08T09:20:20;100059.75;;;27.41;37.79
75699;BME280;64313;51.018;13.742;2023-07-08T09:23:09;100063.22;;;27.47;36.02
75699;BME280;64313;51.018;13.742;2023-07-08T09:25:52;100064.53;;;27.49;36.73
75699;BME280;64313;51.018;13.742;2023-07-08T09:28:19;100065.28;;;27.55;34.44
75699;BME280;64313;51.018;13.742;2023-07-08T09:34:22;100080.31;;;27.71;36.07
75699;BME280;64313;51.018;13.742;2023-07-08T09:36:49;100070.97;;;27.72;35.41
75699;BME280;64313;51.018;13.742;2023-07-08T09:39:17;100072.09;;;27.71;33.97
75699;BME280;64313;51.018;13.742;2023-07-08T09:41:45;100074.22;;;27.74;35.70
75699;BME280;64313;51.018;13.742;2023-07-08T09:44:16;100062.84;;;27.81;34.30
75699;BME280;64313;51.018;13.742;2023-07-08T09:46:42;100065.22;;;27.88;33.90
75699;BME280;64313;51.018;13.742;2023-07-08T09:49:31;100063.09;;;27.85;35.45
75699;BME280;64313;51.018;13.742;2023-07-08T09:51:56;100058.69;;;27.83;33.70
75699;BME280;64313;51.018;13.742;2023-07-08T09:54:23;100062.75;;;27.86;34.51
75699;BME280;64313;51.018;13.742;2023-07-08T09:57:03;100064.06;;;27.89;34.22
75699;BME280;64313;51.018;13.742;2023-07-08T09:59:32;100066.94;;;27.97;33.66
75699;BME280;64313;51.018;13.742;2023-07-08T10:02:02;100065.59;;;28.09;34.01
75699;BME280;64313;51.018;13.742;2023-07-08T10:04:29;100060.19;;;28.17;32.56
75699;BME280;64313;51.018;13.742;2023-07-08T10:06:54;100061.19;;;28.21;33.66
75699;BME280;64313;51.018;13.742;2023-07-08T10:09:24;100068.69;;;28.30;32.50
75699;BME280;64313;51.018;13.742;2023-07-08T10:12:01;100063.78;;;28.40;31.78
75699;BME280;64313;51.018;13.742;2023-07-08T10:14:36;100069.47;;;28.44;31.19
75699;BME280;64313;51.018;13.742;2023-07-08T10:17:03;100059.53;;;28.48;31.70
75699;BME280;64313;51.018;13.742;2023-07-08T10:19:28;100065.41;;;28.55;31.46
75699;BME280;64313;51.018;13.742;2023-07-08T10:22:20;100059.78;;;28.60;32.26
75699;BME280;64313;51.018;13.742;2023-07-08T10:25:09;100060.78;;;28.64;32.07
75699;BME280;64313;51.018;13.742;2023-07-08T10:27:51;100061.78;;;28.68;31.14
75699;BME280;64313;51.018;13.742;2023-07-08T10:30:26;100055.97;;;28.70;30.76
75699;BME280;64313;51.018;13.742;2023-07-08T10:35:39;100051.78;;;28.73;31.10
75699;BME280;64313;51.018;13.742;2023-07-08T10:38:23;100048.88;;;28.78;31.32
75699;BME280;64313;51.018;13.742;2023-07-08T10:41:00;100050.41;;;28.84;30.58
75699;BME280;64313;51.018;13.742;2023-07-08T10:46:00;100047.91;;;28.96;30.88
75699;BME280;64313;51.018;13.742;2023-07-08T10:51:26;100046.59;;;28.94;30.61
75699;BME280;64313;51.018;13.742;2023-07-08T10:56:54;100040.16;;;28.98;30.87
75699;BME280;64313;51.018;13.742;2023-07-08T11:02:30;100053.19;;;29.06;30.63
75699;BME280;64313;51.018;13.742;2023-07-08T11:05:05;100047.84;;;29.10;30.65
75699;BME280;64313;51.018;13.742;2023-07-08T11:07:41;100039.66;;;29.19;30.33
75699;BME280;64313;51.018;13.742;2023-07-08T11:10:18;100042.25;;;29.24;30.05
75699;BME280;64313;51.018;13.742;2023-07-08T11:12:51;100043.22;;;29.28;30.67
75699;BME280;64313;51.018;13.742;2023-07-08T11:15:21;100034.38;;;29.31;30.79
75699;BME280;64313;51.018;13.742;2023-07-08T11:18:23;100042.00;;;29.34;29.39
75699;BME280;64313;51.018;13.742;2023-07-08T11:20:55;100037.78;;;29.37;29.83
75699;BME280;64313;51.018;13.742;2023-07-08T11:23:33;100036.63;;;29.38;29.63
75699;BME280;64313;51.018;13.742;2023-07-08T11:26:16;100032.78;;;29.39;30.77
75699;BME280;64313;51.018;13.742;2023-07-08T11:28:43;100022.88;;;29.38;29.38
75699;BME280;64313;51.018;13.742;2023-07-08T11:31:10;100026.56;;;29.33;29.98
75699;BME280;64313;51.018;13.742;2023-07-08T11:33:37;100026.28;;;29.34;30.06
75699;BME280;64313;51.018;13.742;2023-07-08T11:36:04;100022.56;;;29.39;30.04
75699;BME280;64313;51.018;13.742;2023-07-08T11:38:31;100026.94;;;29.40;30.16
75699;BME280;64313;51.018;13.742;2023-07-08T11:41:02;100028.75;;;29.45;29.62
75699;BME280;64313;51.018;13.742;2023-07-08T11:43:46;100023.59;;;29.52;28.32
75699;BME280;64313;51.018;13.742;2023-07-08T11:46:21;100023.59;;;29.61;29.03
75699;BME280;64313;51.018;13.742;2023-07-08T11:48:52;100020.72;;;29.66;28.62
75699;BME280;64313;51.018;13.742;2023-07-08T11:51:23;100025.47;;;29.74;29.27
75699;BME280;64313;51.018;13.742;2023-07-08T11:53:58;100004.59;;;29.82;29.55
75699;BME280;64313;51.018;13.742;2023-07-08T11:56:25;100003.28;;;29.79;28.97
75699;BME280;64313;51.018;13.742;2023-07-08T11:59:05;100003.28;;;29.88;28.95
75699;BME280;64313;51.018;13.742;2023-07-08T12:04:26;100003.78;;;29.98;29.33
75699;BME280;64313;51.018;13.742;2023-07-08T12:07:15;100005.06;;;30.01;28.79
75699;BME280;64313;51.018;13.742;2023-07-08T12:09:47;100008.97;;;30.09;28.06
75699;BME280;64313;51.018;13.742;2023-07-08T12:12:23;99997.81;;;30.14;30.33
75699;BME280;64313;51.018;13.742;2023-07-08T12:14:51;100009.81;;;30.09;28.32
75699;BME280;64313;51.018;13.742;2023-07-08T12:17:18;100000.69;;;30.09;26.74
75699;BME280;64313;51.018;13.742;2023-07-08T12:19:46;99996.19;;;30.13;27.17
75699;BME280;64313;51.018;13.742;2023-07-08T12:22:12;99997.81;;;30.14;28.55
75699;BME280;64313;51.018;13.742;2023-07-08T12:24:39;99995.69;;;30.11;27.98
75699;BME280;64313;51.018;13.742;2023-07-08T12:27:04;99993.91;;;30.15;28.22
75699;BME280;64313;51.018;13.742;2023-07-08T12:29:31;99992.16;;;30.19;28.42
75699;BME280;64313;51.018;13.742;2023-07-08T12:31:57;99998.13;;;30.21;28.45
75699;BME280;64313;51.018;13.742;2023-07-08T12:34:24;100000.28;;;30.24;28.88
75699;BME280;64313;51.018;13.742;2023-07-08T12:36:51;99991.50;;;30.31;29.98
75699;BME280;64313;51.018;13.742;2023-07-08T12:39:16;99996.06;;;30.35;28.91
75699;BME280;64313;51.018;13.742;2023-07-08T12:41:52;99986.16;;;30.43;29.17
75699;BME280;64313;51.018;13.742;2023-07-08T12:44:22;99986.78;;;30.49;28.70
75699;BME280;64313;51.018;13.742;2023-07-08T12:46:49;99990.66;;;30.56;28.94
75699;BME280;64313;51.018;13.742;2023-07-08T12:49:17;99988.22;;;30.63;29.06
75699;BME280;64313;51.018;13.742;2023-07-08T12:51:45;99982.06;;;30.67;28.97
75699;BME280;64313;51.018;13.742;2023-07-08T12:54:11;99986.44;;;30.68;28.10
75699;BME280;64313;51.018;13.742;2023-07-08T12:56:38;99992.78;;;30.68;27.78
75699;BME280;64313;51.018;13.742;2023-07-08T12:59:05;99989.34;;;30.71;27.21
75699;BME280;64313;51.018;13.742;2023-07-08T13:01:33;99986.41;;;30.76;28.52
75699;BME280;64313;51.018;13.742;2023-07-08T13:04:03;99978.94;;;30.77;28.45
75699;BME280;64313;51.018;13.742;2023-07-08T13:06:31;99980.09;;;30.76;28.08
75699;BME280;64313;51.018;13.742;2023-07-08T13:09:30;99986.41;;;30.76;26.86
75699;BME280;64313;51.018;13.742;2023-07-08T13:11:57;99981.88;;;30.80;27.61
75699;BME280;64313;51.018;13.742;2023-07-08T13:14:26;99975.88;;;30.87;28.13
75699;BME280;64313;51.018;13.742;2023-07-08T13:16:52;99974.06;;;30.91;27.05
75699;BME280;64313;51.018;13.742;2023-07-08T13:19:17;99974.25;;;30.95;26.50
75699;BME280;64313;51.018;13.742;2023-07-08T13:21:44;99969.84;;;30.94;27.62
75699;BME280;64313;51.018;13.742;2023-07-08T13:24:10;99970.50;;;30.91;27.75
75699;BME280;64313;51.018;13.742;2023-07-08T13:26:39;99963.38;;;30.90;27.39
75699;BME280;64313;51.018;13.742;2023-07-08T13:29:11;99963.38;;;30.90;28.00
75699;BME280;64313;51.018;13.742;2023-07-08T13:31:39;99956.22;;;30.89;27.50
75699;BME280;64313;51.018;13.742;2023-07-08T13:34:08;99970.69;;;30.86;26.07